<?xml version="1.0" encoding="utf-8"?>
<gpx xmlns:xsi="http://www.w3.org/2001/XMLSchema-instance" xmlns:xsd="http://www.w3.org/2001/XMLSchema" version="1.1" creator="Shapelink.com" xmlns="http://www.topografix.com/GPX/1/1" xmlns:gpxtpx="http://www.garmin.com/xmlschemas/TrackPointExtension/v1">
  <metadata>
    <name>Övrigt 1.95 km, 2020-07-11</name>
    <desc></desc>
    <author><name>Marian Moron</name></author> 
    <time>2020-07-11T21:01:51Z</time>
  </metadata>
  <trk>
    <name>Övrigt 1.95 km, 2020-07-11</name>
    <trkseg>
      <trkpt lat="51.229929054348" lon="4.457903205263">
        <ele>3.8</ele>
        <time>2020-07-11T21:01:51Z</time>
      </trkpt>
      <trkpt lat="51.229940369913" lon="4.457942264917">
        <ele>4.2</ele>
        <time>2020-07-11T21:01:53Z</time>
      </trkpt>
      <trkpt lat="51.229936598058" lon="4.45811384241">
        <ele>3.6</ele>
        <time>2020-07-11T21:02:03Z</time>
      </trkpt>
      <trkpt lat="51.229966269984" lon="4.458390109834">
        <ele>1.2</ele>
        <time>2020-07-11T21:02:16Z</time>
      </trkpt>
      <trkpt lat="51.229974651884" lon="4.458461775079">
        <ele>0.6</ele>
        <time>2020-07-11T21:02:21Z</time>
      </trkpt>
      <trkpt lat="51.229965934708" lon="4.458569231037">
        <ele>0.4</ele>
        <time>2020-07-11T21:02:27Z</time>
      </trkpt>
      <trkpt lat="51.22997331078" lon="4.458636621513">
        <ele>0.4</ele>
        <time>2020-07-11T21:02:31Z</time>
      </trkpt>
      <trkpt lat="51.229975657712" lon="4.458667886">
        <ele>0</ele>
        <time>2020-07-11T21:02:33Z</time>
      </trkpt>
      <trkpt lat="51.229982866146" lon="4.458765702773">
        <ele>0</ele>
        <time>2020-07-11T21:02:49Z</time>
      </trkpt>
      <trkpt lat="51.230154611277" lon="4.458953876428">
        <ele>0</ele>
        <time>2020-07-11T21:03:12Z</time>
      </trkpt>
      <trkpt lat="51.230352340298" lon="4.458963347975">
        <ele>0</ele>
        <time>2020-07-11T21:03:38Z</time>
      </trkpt>
      <trkpt lat="51.230368349727" lon="4.459015064298">
        <ele>0</ele>
        <time>2020-07-11T21:03:41Z</time>
      </trkpt>
      <trkpt lat="51.230486031603" lon="4.459460143188">
        <ele>0</ele>
        <time>2020-07-11T21:04:14Z</time>
      </trkpt>
      <trkpt lat="51.230571359345" lon="4.4599670805">
        <ele>0.2</ele>
        <time>2020-07-11T21:05:08Z</time>
      </trkpt>
      <trkpt lat="51.230640929115" lon="4.460127342428">
        <ele>0.2</ele>
        <time>2020-07-11T21:05:22Z</time>
      </trkpt>
      <trkpt lat="51.230656016535" lon="4.460706615537">
        <ele>0</ele>
        <time>2020-07-11T21:06:34Z</time>
      </trkpt>
      <trkpt lat="51.230204818858" lon="4.460798648799">
        <ele>1.8</ele>
        <time>2020-07-11T21:07:23Z</time>
      </trkpt>
      <trkpt lat="51.230121251315" lon="4.460824967965">
        <ele>6.6</ele>
        <time>2020-07-11T21:07:42Z</time>
      </trkpt>
      <trkpt lat="51.230005748733" lon="4.460845335982">
        <ele>12.6</ele>
        <time>2020-07-11T21:08:03Z</time>
      </trkpt>
      <trkpt lat="51.229866273917" lon="4.460917504141">
        <ele>13.6</ele>
        <time>2020-07-11T21:08:21Z</time>
      </trkpt>
      <trkpt lat="51.229743227625" lon="4.461044573745">
        <ele>8.8</ele>
        <time>2020-07-11T21:08:38Z</time>
      </trkpt>
      <trkpt lat="51.229614146365" lon="4.461141887604">
        <ele>2.8</ele>
        <time>2020-07-11T21:08:57Z</time>
      </trkpt>
      <trkpt lat="51.229634011468" lon="4.461448246049">
        <ele>11.8</ele>
        <time>2020-07-11T21:10:02Z</time>
      </trkpt>
      <trkpt lat="51.229940789008" lon="4.461758124892">
        <ele>2</ele>
        <time>2020-07-11T21:10:45Z</time>
      </trkpt>
      <trkpt lat="51.230099123099" lon="4.462275204303">
        <ele>0</ele>
        <time>2020-07-11T21:11:20Z</time>
      </trkpt>
      <trkpt lat="51.230193587112" lon="4.462637889116">
        <ele>0</ele>
        <time>2020-07-11T21:11:45Z</time>
      </trkpt>
      <trkpt lat="51.230384359156" lon="4.463285809986">
        <ele>0</ele>
        <time>2020-07-11T21:12:37Z</time>
      </trkpt>
      <trkpt lat="51.230390645581" lon="4.463297879922">
        <ele>0</ele>
        <time>2020-07-11T21:12:38Z</time>
      </trkpt>
      <trkpt lat="51.230416294195" lon="4.463443808801">
        <ele>0</ele>
        <time>2020-07-11T21:12:56Z</time>
      </trkpt>
      <trkpt lat="51.230445547026" lon="4.463526454335">
        <ele>0</ele>
        <time>2020-07-11T21:13:02Z</time>
      </trkpt>
      <trkpt lat="51.230609916085" lon="4.464193402118">
        <ele>0</ele>
        <time>2020-07-11T21:13:45Z</time>
      </trkpt>
      <trkpt lat="51.230702787537" lon="4.464492803586">
        <ele>0</ele>
        <time>2020-07-11T21:14:15Z</time>
      </trkpt>
      <trkpt lat="51.230732627101" lon="4.464746523699">
        <ele>1.8</ele>
        <time>2020-07-11T21:14:30Z</time>
      </trkpt>
      <trkpt lat="51.230740925182" lon="4.464882310479">
        <ele>3</ele>
        <time>2020-07-11T21:14:40Z</time>
      </trkpt>
      <trkpt lat="51.230841340344" lon="4.465586222441">
        <ele>0</ele>
        <time>2020-07-11T21:15:19Z</time>
      </trkpt>
      <trkpt lat="51.230814937359" lon="4.46630128233">
        <ele>0</ele>
        <time>2020-07-11T21:15:58Z</time>
      </trkpt>
      <trkpt lat="51.230739919354" lon="4.466987089388">
        <ele>0</ele>
        <time>2020-07-11T21:17:23Z</time>
      </trkpt>
      <trkpt lat="51.230738829707" lon="4.467016006943">
        <ele>0</ele>
        <time>2020-07-11T21:17:25Z</time>
      </trkpt>
      <trkpt lat="51.23080395707" lon="4.467265787563">
        <ele>0</ele>
        <time>2020-07-11T21:17:49Z</time>
      </trkpt>
      <trkpt lat="51.23089699616" lon="4.467206778987">
        <ele>0</ele>
        <time>2020-07-11T21:18:13Z</time>
      </trkpt>
      <trkpt lat="51.231108639135" lon="4.467175765957">
        <ele>0</ele>
        <time>2020-07-11T21:18:34Z</time>
      </trkpt>
      <trkpt lat="51.231370657329" lon="4.467111644422">
        <ele>0</ele>
        <time>2020-07-11T21:19:01Z</time>
      </trkpt>
      <trkpt lat="51.231637704663" lon="4.467096640821">
        <ele>0</ele>
        <time>2020-07-11T21:19:28Z</time>
      </trkpt>
      <trkpt lat="51.231533433827" lon="4.466833197704">
        <ele>2.6</ele>
        <time>2020-07-11T21:19:52Z</time>
      </trkpt>
      <trkpt lat="51.231543156831" lon="4.466497670247">
        <ele>0</ele>
        <time>2020-07-11T21:20:43Z</time>
      </trkpt>
      <trkpt lat="51.231712722668" lon="4.466085196948">
        <ele>6.8</ele>
        <time>2020-07-11T21:21:21Z</time>
      </trkpt>
      <trkpt lat="51.231742310775" lon="4.465963407941">
        <ele>12.4</ele>
        <time>2020-07-11T21:21:32Z</time>
      </trkpt>
      <trkpt lat="51.231940710348" lon="4.465336860916">
        <ele>0</ele>
        <time>2020-07-11T21:22:26Z</time>
      </trkpt>
      <trkpt lat="51.231950684809" lon="4.46530718899">
        <ele>0</ele>
        <time>2020-07-11T21:22:28Z</time>
      </trkpt>
      <trkpt lat="51.232119496275" lon="4.464957915217">
        <ele>0</ele>
        <time>2020-07-11T21:23:00Z</time>
      </trkpt>
      <trkpt lat="51.232355195303" lon="4.464338408988">
        <ele>0</ele>
        <time>2020-07-11T21:23:39Z</time>
      </trkpt>
      <trkpt lat="51.232368271067" lon="4.464273113987">
        <ele>0</ele>
        <time>2020-07-11T21:23:43Z</time>
      </trkpt>
      <trkpt lat="51.23234874124" lon="4.464192899204">
        <ele>0</ele>
        <time>2020-07-11T21:23:49Z</time>
      </trkpt>
      <trkpt lat="51.232323511721" lon="4.464066835428">
        <ele>0</ele>
        <time>2020-07-11T21:23:57Z</time>
      </trkpt>
      <trkpt lat="51.232384029039" lon="4.463990979233">
        <ele>0</ele>
        <time>2020-07-11T21:24:05Z</time>
      </trkpt>
      <trkpt lat="51.232350166163" lon="4.463346494942">
        <ele>0</ele>
        <time>2020-07-11T21:25:07Z</time>
      </trkpt>
      <trkpt lat="51.232299539487" lon="4.462988336355">
        <ele>0</ele>
        <time>2020-07-11T21:25:25Z</time>
      </trkpt>
      <trkpt lat="51.232182276706" lon="4.462754565164">
        <ele>0</ele>
        <time>2020-07-11T21:26:16Z</time>
      </trkpt>
      <trkpt lat="51.232130644202" lon="4.462627244103">
        <ele>0</ele>
        <time>2020-07-11T21:26:26Z</time>
      </trkpt>
      <trkpt lat="51.232216810134" lon="4.462228936215">
        <ele>1</ele>
        <time>2020-07-11T21:27:16Z</time>
      </trkpt>
      <trkpt lat="51.232202309447" lon="4.462020478362">
        <ele>2.2</ele>
        <time>2020-07-11T21:27:37Z</time>
      </trkpt>
      <trkpt lat="51.232101559009" lon="4.461811601414">
        <ele>4.6</ele>
        <time>2020-07-11T21:28:21Z</time>
      </trkpt>
      <trkpt lat="51.231980105278" lon="4.461136439369">
        <ele>3</ele>
        <time>2020-07-11T21:29:28Z</time>
      </trkpt>
      <trkpt lat="51.231975327595" lon="4.461084220132">
        <ele>3.8</ele>
        <time>2020-07-11T21:29:32Z</time>
      </trkpt>
      <trkpt lat="51.231877762279" lon="4.460458930392">
        <ele>0</ele>
        <time>2020-07-11T21:30:30Z</time>
      </trkpt>
      <trkpt lat="51.231844486136" lon="4.460238821698">
        <ele>0</ele>
        <time>2020-07-11T21:30:48Z</time>
      </trkpt>
      <trkpt lat="51.231678273059" lon="4.459779661216">
        <ele>0</ele>
        <time>2020-07-11T21:31:25Z</time>
      </trkpt>
      <trkpt lat="51.23123227216" lon="4.45973741644">
        <ele>0</ele>
        <time>2020-07-11T21:32:08Z</time>
      </trkpt>
      <trkpt lat="51.231085421272" lon="4.459711013455">
        <ele>0</ele>
        <time>2020-07-11T21:32:25Z</time>
      </trkpt>
      <trkpt lat="51.230662554417" lon="4.459868509356">
        <ele>0</ele>
        <time>2020-07-11T21:33:08Z</time>
      </trkpt>
      <trkpt lat="51.2305416036" lon="4.459816541576">
        <ele>0</ele>
        <time>2020-07-11T21:33:27Z</time>
      </trkpt>
      <trkpt lat="51.230520145936" lon="4.459848392796">
        <ele>0</ele>
        <time>2020-07-11T21:33:30Z</time>
      </trkpt>
      <trkpt lat="51.23036809827" lon="4.459253948448">
        <ele>2.6</ele>
        <time>2020-07-11T21:34:12Z</time>
      </trkpt>
      <trkpt lat="51.230324009476" lon="4.458911044919">
        <ele>0.4</ele>
        <time>2020-07-11T21:34:39Z</time>
      </trkpt>
      <trkpt lat="51.230320572897" lon="4.458836613647">
        <ele>0</ele>
        <time>2020-07-11T21:34:42Z</time>
      </trkpt>
      <trkpt lat="51.230309760246" lon="4.458718847952">
        <ele>0</ele>
        <time>2020-07-11T21:35:21Z</time>
      </trkpt>
      <trkpt lat="51.230098033452" lon="4.458765032221">
        <ele>0</ele>
        <time>2020-07-11T21:35:46Z</time>
      </trkpt>
      <trkpt lat="51.229900220612" lon="4.458675681167">
        <ele>0</ele>
        <time>2020-07-11T21:36:17Z</time>
      </trkpt>
      <trkpt lat="51.229892593083" lon="4.457953664301">
        <ele>1.2</ele>
        <time>2020-07-11T21:37:01Z</time>
      </trkpt>
      <trkpt lat="51.229829225919" lon="4.457946791143">
        <ele>0.6</ele>
        <time>2020-07-11T21:37:04Z</time>
      </trkpt>
      <trkpt lat="51.229701318125" lon="4.4579721883">
        <ele>0</ele>
        <time>2020-07-11T21:37:30Z</time>
      </trkpt>
    </trkseg>
  </trk>
</gpx>